Naples, FL

3:18 PM EDT on September 04, 2015 (GMT -0400)
KFLNAPLE31 | | Change Station
CLOSE
Current Station
Personal Weather Station
Location: Naples, FL
Elevation: 20 ft
Nearby Weather Stations

Elev 20 ft 26.16 °N, 81.78 °W | Updated 11 minutes ago

Scattered Clouds
Scattered Clouds
90.0 °F
Feels Like 109 °F
N
13.0
Wind Variable Wind from WNW
Gusts 19.0 mph

Today
High -- | Low -- °F
--% Chance of Precip.
Yesterday
High -- | Low -- °F
Precip. -- in
7:08 AM 7:43 PM
Waning Gibbous, 57% visible
Pressure 29.97 in
Visibility 10.0 miles
Clouds Scattered Clouds 3700 ft
Heat Index 109 °F
Dew Point 81 °F
Humidity 74%
Rainfall 0.00 in
Snow Depth Not available.
UV 11 out of 12
Pollen 3.50 out of 12
Air Quality Not available.
Flu Activity Not available.
METAR KAPF 041753Z 27009KT 10SM SCT037 33/25 A2997 RMK AO2 LTG DSNT N SLP148 T03330250 10333 20272 58009
Pressure 29.97 in
Visibility 10.0 miles
Clouds Scattered Clouds 3700 ft
Heat Index 109 °F
Dew Point 81 °F
Humidity 74%
Rainfall 0.00 in
Snow Depth Not available.
UV 11 out of 12
Pollen 3.50 out of 12
Air Quality Not available.
Flu Activity Not available.
METAR KAPF 041753Z 27009KT 10SM SCT037 33/25 A2997 RMK AO2 LTG DSNT N SLP148 T03330250 10333 20272 58009

10-Day Weather Forecast

×

Almanac

Astronomy

Sep. 04, 2015 Rise Set
Actual Time
Civil Twilight
Nautical Twilight
Astronomical Twilight
Moon
Length of Visible Light
Length of Day
Tomorrow will be .
, % of the Moon is Illuminated

Today's Extremes

State Highs State Lows

Community

WunderPhotos

Upload Photos

1,852,271 photos uploaded!

WunderBlogs® & News

Nearby

Air Quality

  Air Quality AQ Index Pollutant
Not available.

Snow Depth

Station Depth Elevation

Earthquake Activity

City Distance Mag. Time & Date
Minimum magnitude displayed is 2.5.

Coastal Water Temperatures

Place Temperature

Stations

Nearby Weather Stations

Station Location Temp. Windchill Dew Point Humidity Wind Precip. Elev Updated Type